Terminal Aerodrome Forecast
Issued by NWS Omaha/Valley, NE

Home | Current Version | Previous Version | Graphics & Text | Print | Product List | Glossary On
Versions: 1 2 3 4 5 6 7 8 9 10 11 12 13 14 15 16 17 18 19
000
FTUS43 KOAX 261544 AAA
TAFOFK
TAF AMD
KOFK 261544Z 2616/2712 06012KT P6SM BKN040
      TEMPO 2616/2618 2SM -TSRA BR OVC015CB
     FM261900 06014G20KT P6SM SCT040 BKN120
     FM270400 06014G22KT P6SM BKN025
      TEMPO 2704/2706 3SM TSRA BKN020CB
     FM270600 07016G21KT 6SM SHRA OVC007
     FM271000 08014G21KT P6SM OVC007=

USA.gov is the U.S. government's official web portal to all federal, state and local government web resources and services.